Terminal Aerodrome Forecast
Issued by NWS

Home | Current Version | Previous Version | Text Only | Print | Product List | Glossary On
Versions: 1 2 3 4 5 6 7 8 9 10 11 12 13 14 15
000
FTUS43 KEAX 191700
TAFSTJ
TAF
KSTJ 191720Z 1918/2018 17005KT 6SM BR OVC006
      TEMPO 1920/1922 OVC010
     FM200500 18005KT 1SM BR OVC003
     FM201500 18007KT 4SM BR OVC005=

USA.gov is the U.S. government's official web portal to all federal, state and local government web resources and services.